Time;durP1;ratioP1;P1;durP2;ratioP2;P2;SDS_P1;SDS_P2;PMS_P1;PMS_P2;Temp;Humidity;BMP_temperature;BMP_pressure;BME280_temperature;BME280_humidity;BME280_pressure;Samples;Min_cycle;Max_cycle;Signal;HPM_P1;HPM_P2
2021/07/09 00:01:53;;;;;;;;;;;;;;;26.59;36.46;101207.25;5057852;28;639;-39
2021/07/09 00:04:19;;;;;;;;;;;;;;;26.49;37.04;101202.84;5067917;28;915;-38
2021/07/09 00:06:44;;;;;;;;;;;;;;;26.69;36.78;101191.75;5077262;28;1918;-38
2021/07/09 00:09:09;;;;;;;;;;;;;;;26.63;36.51;101195.09;5077798;28;728;-37
2021/07/09 00:11:36;;;;;;;;;;;;;;;26.59;36.42;101199.97;5077963;28;827;-38
2021/07/09 00:14:02;;;;;;;;;;;;;;;26.60;36.63;101203.53;5077804;28;885;-38
2021/07/09 00:16:27;;;;;;;;;;;;;;;26.54;36.58;101199.69;5077713;28;854;-36
2021/07/09 00:18:52;;;;;;;;;;;;;;;26.59;36.42;101202.69;5077003;28;911;-38
2021/07/09 00:21:17;;;;;;;;;;;;;;;26.59;36.48;101201.88;5077398;28;832;-38
2021/07/09 00:23:44;;;;;;;;;;;;;;;26.53;36.64;101197.97;5077657;28;738;-39
2021/07/09 00:26:09;;;;;;;;;;;;;;;26.50;37.33;101199.16;5077918;28;2001;-37
2021/07/09 00:28:34;;;;;;;;;;;;;;;26.64;36.51;101199.50;5077609;28;714;-38
2021/07/09 00:31:00;;;;;;;;;;;;;;;26.58;36.56;101201.00;5076889;28;747;-39
2021/07/09 00:33:25;;;;;;;;;;;;;;;26.53;36.34;101203.38;5077285;28;946;-38
2021/07/09 00:35:50;;;;;;;;;;;;;;;26.52;36.38;101204.38;5077527;28;803;-39
2021/07/09 00:38:16;;;;;;;;;;;;;;;26.55;36.23;101195.94;5076719;28;799;-37
2021/07/09 00:40:41;;;;;;;;;;;;;;;26.55;36.39;101198.66;5077729;28;760;-39
2021/07/09 00:43:07;;;;;;;;;;;;;;;26.55;36.20;101198.66;5059267;28;748;-39
2021/07/09 00:45:32;;;;;;;;;;;;;;;26.50;36.67;101199.16;5076811;28;1905;-39
2021/07/09 00:47:57;;;;;;;;;;;;;;;26.50;36.95;101201.84;5077312;28;819;-39
2021/07/09 00:50:22;;;;;;;;;;;;;;;26.69;36.68;101204.38;5076717;28;966;-39
2021/07/09 00:52:48;;;;;;;;;;;;;;;26.65;36.45;101204.72;5076815;28;914;-39
2021/07/09 00:55:13;;;;;;;;;;;;;;;26.59;36.47;101204.56;5077051;28;1083;-39
2021/07/09 00:57:42;;;;;;;;;;;;;;;26.61;36.53;101200.66;5058552;28;1040;-38
2021/07/09 01:00:08;;;;;;;;;;;;;;;26.50;36.65;101201.00;5058591;28;740;-38
2021/07/09 01:02:33;;;;;;;;;;;;;;;26.46;36.93;101191.56;5076578;28;771;-38
2021/07/09 01:04:59;;;;;;;;;;;;;;;26.55;36.57;101198.66;5058637;28;971;-39
2021/07/09 01:07:24;;;;;;;;;;;;;;;26.58;37.10;101202.84;5076502;28;1906;-38
2021/07/09 01:09:52;;;;;;;;;;;;;;;26.63;37.79;101208.59;5076549;28;878;-37
2021/07/09 01:12:20;;;;;;;;;;;;;;;26.70;37.32;101206.91;5076730;28;816;-37
2021/07/09 01:14:46;;;;;;;;;;;;;;;26.69;37.71;101201.69;5076521;28;808;-37
2021/07/09 01:17:11;;;;;;;;;;;;;;;26.82;37.70;101207.41;5076521;28;999;-38
2021/07/09 01:19:36;;;;;;;;;;;;;;;26.68;37.36;101197.28;5076011;28;1002;-39
2021/07/09 01:22:02;;;;;;;;;;;;;;;26.79;36.64;101194.28;5076404;28;759;-35
2021/07/09 01:24:27;;;;;;;;;;;;;;;26.69;37.15;101199.84;5059005;28;771;-38
2021/07/09 01:26:53;;;;;;;;;;;;;;;26.70;36.78;101204.22;5058359;28;1969;-39
2021/07/09 01:29:18;;;;;;;;;;;;;;;26.68;36.85;101198.13;5076188;28;778;-37
2021/07/09 01:31:43;;;;;;;;;;;;;;;26.58;37.22;101195.63;5076735;28;780;-38
2021/07/09 01:34:08;;;;;;;;;;;;;;;26.63;37.19;101190.56;5075675;28;967;-38
2021/07/09 01:36:34;;;;;;;;;;;;;;;26.64;37.06;101184.13;5075882;28;871;-38
2021/07/09 01:38:59;;;;;;;;;;;;;;;26.59;37.43;101191.91;5076851;28;851;-37
2021/07/09 01:41:24;;;;;;;;;;;;;;;26.71;37.82;101189.69;5076234;28;796;-38
2021/07/09 01:43:50;;;;;;;;;;;;;;;26.69;37.29;101189.06;5076230;28;752;-38
2021/07/09 01:46:15;;;;;;;;;;;;;;;26.68;36.88;101197.28;5076027;28;1898;-38
2021/07/09 01:48:40;;;;;;;;;;;;;;;26.64;36.87;101194.94;5075669;28;970;-38
2021/07/09 01:51:06;;;;;;;;;;;;;;;26.55;36.72;101195.09;5075895;28;784;-38
2021/07/09 01:53:31;;;;;;;;;;;;;;;26.51;36.81;101190.03;5076065;28;972;-38
2021/07/09 01:55:56;;;;;;;;;;;;;;;26.52;36.70;101194.44;5075927;28;1213;-38
2021/07/09 01:58:22;;;;;;;;;;;;;;;26.49;36.87;101197.47;5076302;28;799;-39
2021/07/09 02:00:47;;;;;;;;;;;;;;;26.64;36.74;101202.22;5076110;28;795;-39
2021/07/09 02:03:12;;;;;;;;;;;;;;;26.65;37.25;101193.94;5076317;28;740;-37
2021/07/09 02:05:38;;;;;;;;;;;;;;;26.72;36.93;101187.84;5075139;28;1919;-38
2021/07/09 02:08:03;;;;;;;;;;;;;;;26.59;36.98;101202.69;5076145;28;752;-38
2021/07/09 02:10:29;;;;;;;;;;;;;;;26.49;37.08;101189.38;5076341;28;756;-37
2021/07/09 02:12:55;;;;;;;;;;;;;;;26.46;37.13;101195.09;5076172;28;740;-36
2021/07/09 02:15:44;;;;;;;;;;;;;;;26.47;36.71;101191.41;5080444;28;736;-38
2021/07/09 02:18:09;;;;;;;;;;;;;;;26.41;36.77;101187.50;5069393;28;1789;-39
2021/07/09 02:20:35;;;;;;;;;;;;;;;26.41;36.71;101184.81;5079197;28;939;-38
2021/07/09 02:23:01;;;;;;;;;;;;;;;26.41;36.86;101182.13;5079636;28;851;-39
2021/07/09 02:25:26;;;;;;;;;;;;;;;26.50;36.73;101182.97;5080021;28;2027;-39
2021/07/09 02:27:52;;;;;;;;;;;;;;;26.63;37.10;101190.56;5079668;28;774;-37
2021/07/09 02:30:17;;;;;;;;;;;;;;;26.65;37.10;101180.44;5079658;28;751;-38
2021/07/09 02:32:43;;;;;;;;;;;;;;;26.76;37.20;101184.63;5079960;28;808;-37
2021/07/09 02:35:11;;;;;;;;;;;;;;;26.84;37.02;101188.34;5078899;28;1074;-38
2021/07/09 02:37:37;;;;;;;;;;;;;;;26.76;36.52;101184.63;5079649;28;1420;-38
2021/07/09 02:40:09;;;;;;;;;;;;;;;26.61;36.40;101194.44;5079509;28;732;-38
2021/07/09 02:42:34;;;;;;;;;;;;;;;26.60;36.34;101190.91;5079310;28;776;-39
2021/07/09 02:44:59;;;;;;;;;;;;;;;26.58;36.22;101201.00;5079641;28;861;-37
2021/07/09 02:47:25;;;;;;;;;;;;;;;26.61;36.29;101191.75;5079594;28;2235;-38
2021/07/09 02:49:50;;;;;;;;;;;;;;;26.64;36.09;101191.41;5078538;28;962;-35
2021/07/09 02:52:15;;;;;;;;;;;;;;;26.57;36.20;101191.25;5079188;28;866;-38
2021/07/09 02:54:40;;;;;;;;;;;;;;;26.55;36.41;101190.56;5079348;28;1025;-38
2021/07/09 02:57:06;;;;;;;;;;;;;;;26.62;36.25;101194.28;5078908;28;934;-38
2021/07/09 02:59:31;;;;;;;;;;;;;;;26.77;36.78;101196.28;5079496;28;760;-38
2021/07/09 03:01:56;;;;;;;;;;;;;;;26.78;36.88;101189.88;5079269;28;867;-39
2021/07/09 03:04:21;;;;;;;;;;;;;;;26.87;37.22;101191.56;5078115;28;1013;-39
2021/07/09 03:06:47;;;;;;;;;;;;;;;26.89;37.00;101191.41;5079149;28;1918;-36
2021/07/09 03:09:12;;;;;;;;;;;;;;;26.94;37.29;101191.72;5079206;28;823;-38
2021/07/09 03:11:38;;;;;;;;;;;;;;;26.88;36.79;101195.09;5078525;28;871;-37
2021/07/09 03:14:03;;;;;;;;;;;;;;;26.83;36.70;101192.91;5079185;28;831;-37
2021/07/09 03:16:28;;;;;;;;;;;;;;;26.69;36.80;101188.19;5078974;28;799;-39
2021/07/09 03:18:54;;;;;;;;;;;;;;;26.59;37.61;101194.59;5077878;28;915;-39
2021/07/09 03:21:19;;;;;;;;;;;;;;;26.58;37.21;101192.91;5078936;28;752;-38
2021/07/09 03:23:44;;;;;;;;;;;;;;;26.22;43.61;101190.50;5078604;28;806;-41
2021/07/09 03:26:10;;;;;;;;;;;;;;;25.56;46.42;101192.81;5078561;28;2037;-42
2021/07/09 03:28:35;;;;;;;;;;;;;;;25.50;47.30;101187.22;5078397;28;878;-42
2021/07/09 03:31:00;;;;;;;;;;;;;;;25.44;47.26;101186.84;5078715;28;815;-42
2021/07/09 03:33:25;;;;;;;;;;;;;;;25.44;46.88;101188.72;5078071;28;1005;-42
2021/07/09 03:35:52;;;;;;;;;;;;;;;25.35;46.26;101179.75;5078411;28;767;-41
2021/07/09 03:38:18;;;;;;;;;;;;;;;25.37;46.66;101187.66;5078123;28;819;-41
2021/07/09 03:40:43;;;;;;;;;;;;;;;25.37;47.30;101182.28;5078965;28;812;-42
2021/07/09 03:43:08;;;;;;;;;;;;;;;25.29;48.17;101180.41;5077566;28;812;-42
2021/07/09 03:45:34;;;;;;;;;;;;;;;25.36;46.85;101178.72;5078445;28;1910;-42
2021/07/09 03:47:59;;;;;;;;;;;;;;;25.79;50.85;101188.72;5078695;28;767;-41
2021/07/09 03:50:24;;;;;;;;;;;;;;;25.66;51.84;101179.22;5077756;28;995;-42
2021/07/09 03:52:50;;;;;;;;;;;;;;;25.72;50.71;101187.69;5078083;28;859;-42
2021/07/09 03:55:15;;;;;;;;;;;;;;;25.89;51.82;101184.00;5077748;28;1278;-36
2021/07/09 03:57:40;;;;;;;;;;;;;;;25.74;52.01;101181.09;5077387;28;912;-44
2021/07/09 04:03:08;;;;;;;;;;;;;;;25.67;53.00;101172.81;5077829;28;610;-42
2021/07/09 04:05:33;;;;;;;;;;;;;;;26.01;52.37;101184.56;5076975;28;1909;-42
2021/07/09 04:07:58;;;;;;;;;;;;;;;25.78;53.10;101181.63;5077776;28;759;-42
2021/07/09 04:10:24;;;;;;;;;;;;;;;26.38;49.15;101181.59;5077894;28;831;-42
2021/07/09 04:12:49;;;;;;;;;;;;;;;26.07;51.09;101183.06;5077264;28;954;-42
2021/07/09 04:15:14;;;;;;;;;;;;;;;25.80;53.50;101187.72;5077888;28;783;-39
2021/07/09 04:17:40;;;;;;;;;;;;;;;26.04;52.98;101186.91;5077950;28;783;-39
2021/07/09 04:20:05;;;;;;;;;;;;;;;25.53;53.86;101189.59;5076765;28;907;-40
2021/07/09 04:25:33;;;;;;;;;;;;;;;26.08;53.26;101184.75;5077175;28;1984;-38
2021/07/09 04:28:01;;;;;;;;;;;;;;;25.66;55.01;101181.94;5077604;28;772;-40
2021/07/09 04:30:26;;;;;;;;;;;;;;;25.77;54.69;101183.50;5077486;28;1093;-39
2021/07/09 04:32:51;;;;;;;;;;;;;;;26.22;52.95;101183.25;5077276;28;879;-38
2021/07/09 04:38:19;;;;;;;;;;;;;;;25.71;55.23;101178.75;5077305;28;593;-44
2021/07/09 04:40:45;;;;;;;;;;;;;;;25.12;56.87;101183.00;5077695;28;797;-43
2021/07/09 04:43:10;;;;;;;;;;;;;;;25.71;55.30;101176.03;5076928;28;910;-42
2021/07/09 04:45:36;;;;;;;;;;;;;;;25.55;56.20;101182.19;5077620;28;1905;-43
2021/07/09 04:48:01;;;;;;;;;;;;;;;25.61;56.04;101189.63;5076391;28;851;-40
2021/07/09 04:50:26;;;;;;;;;;;;;;;25.97;54.82;101194.00;5076598;28;947;-36
2021/07/09 04:52:52;;;;;;;;;;;;;;;25.76;54.09;101187.19;5076929;28;854;-37
2021/07/09 04:55:17;;;;;;;;;;;;;;;26.16;52.71;101192.00;5076788;28;1044;-43
2021/07/09 04:57:42;;;;;;;;;;;;;;;26.26;52.56;101192.69;5076632;28;898;-36
2021/07/09 05:00:08;;;;;;;;;;;;;;;26.29;52.50;101184.25;5077204;28;792;-36
2021/07/09 05:02:35;;;;;;;;;;;;;;;26.20;53.09;101189.81;5076681;28;752;-38
2021/07/09 05:05:00;;;;;;;;;;;;;;;27.04;50.17;101188.00;5075922;28;1029;-40
2021/07/09 05:07:26;;;;;;;;;;;;;;;27.25;49.60;101191.00;5076795;28;1967;-43
2021/07/09 05:09:51;;;;;;;;;;;;;;;27.16;49.94;101192.03;5076670;28;756;-42
2021/07/09 05:12:16;;;;;;;;;;;;;;;27.37;47.88;101186.09;5076737;28;853;-42
2021/07/09 05:14:42;;;;;;;;;;;;;;;27.51;48.29;101189.91;5076782;28;829;-40
2021/07/09 05:17:07;;;;;;;;;;;;;;;27.33;45.16;101191.97;5076340;28;839;-40
2021/07/09 05:19:32;;;;;;;;;;;;;;;27.44;44.86;101188.94;5076200;28;954;-43
2021/07/09 05:21:58;;;;;;;;;;;;;;;27.44;44.22;101191.63;5077467;28;816;-43
2021/07/09 05:24:26;;;;;;;;;;;;;;;27.38;42.91;101193.16;5076368;28;859;-40
2021/07/09 05:26:51;;;;;;;;;;;;;;;27.48;42.38;101195.66;5075992;28;1960;-39
2021/07/09 05:29:16;;;;;;;;;;;;;;;27.49;41.38;101202.72;5076689;28;791;-41
2021/07/09 05:31:42;;;;;;;;;;;;;;;27.50;45.11;101206.28;5076598;28;739;-41
2021/07/09 05:34:07;;;;;;;;;;;;;;;27.81;46.71;101204.69;5075614;28;955;-40
2021/07/09 05:36:32;;;;;;;;;;;;;;;27.83;47.61;101208.88;5076568;28;756;-42
2021/07/09 05:38:57;;;;;;;;;;;;;;;27.71;48.16;101203.00;5076431;28;854;-40
2021/07/09 05:41:23;;;;;;;;;;;;;;;27.71;48.79;101204.91;5076306;28;723;-41
2021/07/09 05:43:48;;;;;;;;;;;;;;;27.95;48.43;101197.66;5076390;28;819;-42
2021/07/09 05:46:13;;;;;;;;;;;;;;;28.03;47.89;101194.91;5075831;28;1960;-40
2021/07/09 05:48:38;;;;;;;;;;;;;;;28.01;47.29;101204.22;5075208;28;1029;-42
2021/07/09 05:51:04;;;;;;;;;;;;;;;28.02;47.61;101205.91;5076555;28;731;-35
2021/07/09 05:53:32;;;;;;;;;;;;;;;28.08;47.43;101210.59;5075650;28;836;-38
2021/07/09 05:55:58;;;;;;;;;;;;;;;27.96;43.86;101210.16;5075959;28;1062;-39
2021/07/09 05:58:23;;;;;;;;;;;;;;;27.98;46.30;101210.81;5076631;28;791;-38
2021/07/09 06:00:48;;;;;;;;;;;;;;;27.93;47.28;101216.75;5076205;28;900;-37
2021/07/09 06:03:14;;;;;;;;;;;;;;;27.93;43.37;101208.66;5075816;28;819;-41
2021/07/09 06:05:39;;;;;;;;;;;;;;;27.80;45.53;101211.09;5075068;28;1925;-38
2021/07/09 06:08:04;;;;;;;;;;;;;;;27.88;46.52;101211.03;5075815;28;835;-38
2021/07/09 06:10:30;;;;;;;;;;;;;;;27.94;46.63;101204.09;5076275;28;830;-39
2021/07/09 06:12:55;;;;;;;;;;;;;;;27.97;47.05;101204.59;5075950;28;775;-47
2021/07/09 06:15:21;;;;;;;;;;;;;;;27.99;47.38;101207.94;5075929;28;743;-42
2021/07/09 06:17:47;;;;;;;;;;;;;;;27.95;47.63;101206.63;5075583;28;751;-43
2021/07/09 06:20:12;;;;;;;;;;;;;;;28.09;47.50;101201.47;5075631;28;994;-42
2021/07/09 06:22:37;;;;;;;;;;;;;;;28.01;47.69;101194.22;5076069;28;899;-41
2021/07/09 06:25:03;;;;;;;;;;;;;;;28.02;48.11;101200.50;5075688;28;894;-41
2021/07/09 06:27:28;;;;;;;;;;;;;;;28.06;47.99;101197.25;5076117;28;1902;-40
2021/07/09 06:29:53;;;;;;;;;;;;;;;28.11;47.90;101199.44;5075853;28;874;-39
2021/07/09 06:32:19;;;;;;;;;;;;;;;28.03;47.88;101194.09;5075761;28;860;-40
2021/07/09 06:34:44;;;;;;;;;;;;;;;28.09;47.79;101194.19;5075524;28;959;-42
2021/07/09 06:37:09;;;;;;;;;;;;;;;28.17;47.91;101189.75;5075922;28;799;-42
2021/07/09 06:39:34;;;;;;;;;;;;;;;28.19;47.96;101188.56;5075709;28;831;-43
2021/07/09 06:42:00;;;;;;;;;;;;;;;28.25;47.83;101189.69;5075842;28;772;-42
2021/07/09 06:44:25;;;;;;;;;;;;;;;28.48;47.06;101187.00;5075303;28;843;-40
2021/07/09 06:46:50;;;;;;;;;;;;;;;28.20;47.82;101178.56;5075446;28;1898;-42
2021/07/09 06:49:16;;;;;;;;;;;;;;;28.15;46.04;101187.22;5075307;28;955;-42
2021/07/09 06:51:41;;;;;;;;;;;;;;;28.18;47.29;101183.31;5075561;28;1138;-42
2021/07/09 06:54:06;;;;;;;;;;;;;;;28.19;47.61;101183.16;5075834;28;764;-42
2021/07/09 06:56:31;;;;;;;;;;;;;;;28.20;47.51;101186.69;5074779;28;1235;-43
2021/07/09 06:58:57;;;;;;;;;;;;;;;28.20;47.96;101189.38;5076393;28;787;-42
2021/07/09 07:01:22;;;;;;;;;;;;;;;28.35;47.40;101190.34;5079335;28;776;-42
2021/07/09 07:03:47;;;;;;;;;;;;;;;28.30;47.42;101190.00;5078794;28;1030;-41
2021/07/09 07:06:13;;;;;;;;;;;;;;;28.34;47.70;101191.34;5079027;28;1910;-42
2021/07/09 07:08:38;;;;;;;;;;;;;;;28.39;47.27;101189.97;5078425;28;1071;-42
2021/07/09 07:11:03;;;;;;;;;;;;;;;28.53;46.98;101189.16;5078290;28;879;-42
2021/07/09 07:13:28;;;;;;;;;;;;;;;28.46;47.29;101190.94;5079172;28;791;-42
2021/07/09 07:15:54;;;;;;;;;;;;;;;28.76;46.77;101187.47;5078143;28;902;-42
2021/07/09 07:18:19;;;;;;;;;;;;;;;28.92;46.15;101187.31;5078707;28;982;-41
2021/07/09 07:20:45;;;;;;;;;;;;;;;28.89;46.39;101190.38;5078930;28;947;-41
2021/07/09 07:23:11;;;;;;;;;;;;;;;28.71;47.84;101196.13;5078194;28;811;-40
2021/07/09 07:25:36;;;;;;;;;;;;;;;28.63;46.84;101196.22;5078589;28;1972;-35
2021/07/09 07:28:02;;;;;;;;;;;;;;;29.03;45.77;101198.75;5078919;28;796;-36
2021/07/09 07:30:27;;;;;;;;;;;;;;;28.57;45.37;101200.47;5077733;28;839;-36
2021/07/09 07:32:53;;;;;;;;;;;;;;;29.15;45.12;101196.41;5078894;28;772;-39
2021/07/09 07:35:18;;;;;;;;;;;;;;;28.84;47.48;101195.50;5077931;28;990;-38
2021/07/09 07:37:43;;;;;;;;;;;;;;;28.74;45.91;101195.78;5078654;28;732;-35
2021/07/09 07:40:09;;;;;;;;;;;;;;;29.36;43.89;101201.09;5078327;28;827;-35
2021/07/09 07:42:34;;;;;;;;;;;;;;;29.11;43.01;101195.09;5078001;28;812;-35
2021/07/09 07:44:59;;;;;;;;;;;;;;;28.90;42.31;101194.75;5078104;28;812;-35
2021/07/09 07:47:24;;;;;;;;;;;;;;;29.58;41.37;101193.00;5077669;28;1905;-35
2021/07/09 07:49:50;;;;;;;;;;;;;;;29.65;40.28;101195.84;5077694;28;1405;-35
2021/07/09 07:52:15;;;;;;;;;;;;;;;29.18;41.22;101198.72;5078185;28;812;-34
2021/07/09 07:54:40;;;;;;;;;;;;;;;29.73;40.30;101189.47;5077784;28;1037;-35
2021/07/09 07:57:06;;;;;;;;;;;;;;;29.65;41.01;101190.41;5078102;28;787;-41
2021/07/09 07:59:31;;;;;;;;;;;;;;;29.86;40.39;101194.22;5078092;28;797;-37
2021/07/09 08:01:56;;;;;;;;;;;;;;;30.02;39.33;101190.41;5077605;28;850;-44
2021/07/09 08:04:22;;;;;;;;;;;;;;;30.08;39.34;101191.53;5077401;28;1033;-46
2021/07/09 08:06:47;;;;;;;;;;;;;;;30.10;38.51;101187.59;5077477;28;1921;-44
2021/07/09 08:09:12;;;;;;;;;;;;;;;29.98;38.33;101189.97;5077732;28;751;-44
2021/07/09 08:11:37;;;;;;;;;;;;;;;29.99;38.81;101197.06;5078238;28;738;-44
2021/07/09 08:14:03;;;;;;;;;;;;;;;30.05;38.46;101187.31;5077552;28;838;-44
2021/07/09 08:16:28;;;;;;;;;;;;;;;29.98;38.47;101198.09;5077340;28;799;-42
2021/07/09 08:18:53;;;;;;;;;;;;;;;29.94;35.11;101180.53;5077304;28;1026;-34
2021/07/09 08:21:19;;;;;;;;;;;;;;;29.87;32.19;101183.19;5077581;28;803;-38
2021/07/09 08:23:44;;;;;;;;;;;;;;;29.61;31.96;101189.13;5077510;28;846;-37
2021/07/09 08:26:09;;;;;;;;;;;;;;;29.18;30.44;101180.63;5077478;28;1964;-42
2021/07/09 08:28:34;;;;;;;;;;;;;;;29.02;29.92;101167.25;5077451;28;732;-39
2021/07/09 08:31:00;;;;;;;;;;;;;;;28.93;28.81;101167.31;5077310;28;755;-41
2021/07/09 08:33:25;;;;;;;;;;;;;;;28.40;28.23;101167.28;5077138;28;1002;-39
2021/07/09 08:35:50;;;;;;;;;;;;;;;28.16;27.69;101166.44;5077234;28;870;-40
2021/07/09 08:38:16;;;;;;;;;;;;;;;28.05;27.28;101163.13;5076725;28;822;-42
2021/07/09 08:40:42;;;;;;;;;;;;;;;27.95;26.60;101165.22;5077349;28;804;-40
2021/07/09 08:43:08;;;;;;;;;;;;;;;27.75;27.33;101165.66;5077222;28;806;-40
2021/07/09 08:45:33;;;;;;;;;;;;;;;27.82;27.25;101165.78;5076894;28;1957;-42
2021/07/09 08:47:58;;;;;;;;;;;;;;;28.04;27.39;101166.00;5076754;28;882;-40
2021/07/09 08:50:24;;;;;;;;;;;;;;;27.67;28.51;101162.97;5059338;28;1002;-43
2021/07/09 08:52:51;;;;;;;;;;;;;;;27.88;28.35;101167.78;5076528;28;752;-39
2021/07/09 08:55:18;;;;;;;;;;;;;;;27.95;28.41;101159.81;5076998;28;1060;-46
2021/07/09 08:57:43;;;;;;;;;;;;;;;27.91;28.43;101159.31;5077378;28;764;-39
2021/07/09 09:00:15;;;;;;;;;;;;;;;27.78;28.62;101159.91;5076731;28;776;-38
2021/07/09 09:02:44;;;;;;;;;;;;;;;27.48;29.57;101160.53;5076980;28;759;-45
2021/07/09 09:05:18;;;;;;;;;;;;;;;27.52;29.49;101161.03;5076158;28;967;-42
2021/07/09 09:07:44;;;;;;;;;;;;;;;27.51;30.05;101156.63;5076342;28;1910;-43
2021/07/09 09:10:09;;;;;;;;;;;;;;;27.38;30.42;101154.47;5058733;28;1073;-44
2021/07/09 09:12:34;;;;;;;;;;;;;;;27.31;30.63;101157.03;5077275;28;725;-42
2021/07/09 09:15:00;;;;;;;;;;;;;;;27.29;30.40;101152.84;5076616;28;831;-40
2021/07/09 09:17:33;;;;;;;;;;;;;;;27.31;30.69;101150.81;5058242;28;1152;-39
2021/07/09 09:20:17;;;;;;;;;;;;;;;27.69;30.91;101150.16;5076304;28;962;-39
2021/07/09 09:22:48;;;;;;;;;;;;;;;27.92;32.19;101149.34;5074820;28;941;-40
2021/07/09 09:25:13;;;;;;;;;;;;;;;27.97;33.19;101153.22;5076572;28;763;-40
2021/07/09 09:27:39;;;;;;;;;;;;;;;28.17;34.10;101157.28;5076578;28;1906;-40
2021/07/09 09:30:13;;;;;;;;;;;;;;;27.87;34.77;101153.44;5076142;28;820;-39
2021/07/09 09:32:48;;;;;;;;;;;;;;;27.80;35.33;101151.63;5076486;28;820;-39
2021/07/09 09:35:23;;;;;;;;;;;;;;;27.81;34.93;101146.03;5076019;28;1014;-39
2021/07/09 09:37:49;;;;;;;;;;;;;;;27.63;35.76;101151.66;5076339;28;732;-40
2021/07/09 09:40:15;;;;;;;;;;;;;;;27.56;35.87;101153.41;5076685;28;764;-38
2021/07/09 09:42:40;;;;;;;;;;;;;;;27.51;36.24;101153.91;5076195;28;1095;-39
2021/07/09 09:45:06;;;;;;;;;;;;;;;27.62;36.14;101147.28;5076411;28;756;-40
2021/07/09 09:47:32;;;;;;;;;;;;;;;27.53;36.54;101148.38;5076011;28;1973;-40
2021/07/09 09:49:58;;;;;;;;;;;;;;;27.57;36.61;101150.53;5076197;28;962;-41
2021/07/09 09:52:36;;;;;;;;;;;;;;;27.65;36.87;101151.50;5076028;28;762;-39
2021/07/09 09:55:02;;;;;;;;;;;;;;;27.36;37.86;101143.03;5076299;28;1058;-39
2021/07/09 09:57:27;;;;;;;;;;;;;;;27.25;36.81;101142.38;5075920;28;838;-39
2021/07/09 09:59:52;;;;;;;;;;;;;;;27.53;37.33;101142.97;5075476;28;820;-38
2021/07/09 10:02:18;;;;;;;;;;;;;;;27.97;37.66;101142.41;5076271;28;811;-40
2021/07/09 10:04:43;;;;;;;;;;;;;;;27.91;36.02;101137.69;5057671;28;1304;-40
2021/07/09 10:07:09;;;;;;;;;;;;;;;28.20;37.18;101138.84;5075126;28;1971;-37
2021/07/09 10:09:34;;;;;;;;;;;;;;;28.40;38.41;101135.66;5076150;28;827;-39
2021/07/09 10:12:03;;;;;;;;;;;;;;;28.56;38.88;101137.38;5076213;28;1063;-40
2021/07/09 10:14:29;;;;;;;;;;;;;;;28.65;39.43;101138.16;5075630;28;850;-43
2021/07/09 10:16:58;;;;;;;;;;;;;;;28.81;39.15;101129.00;5058332;28;851;-42
2021/07/09 10:19:44;;;;;;;;;;;;;;;28.84;39.13;101133.22;5075557;28;1001;-39
2021/07/09 10:22:12;;;;;;;;;;;;;;;28.79;37.41;101132.94;5075243;28;920;-39
2021/07/09 10:24:41;;;;;;;;;;;;;;;28.27;35.12;101132.69;5076121;28;834;-42
2021/07/09 10:27:06;;;;;;;;;;;;;;;28.18;35.62;101127.34;5057824;28;1967;-43
2021/07/09 10:29:33;;;;;;;;;;;;;;;28.08;35.82;101122.19;5057552;28;787;-39
2021/07/09 10:31:58;;;;;;;;;;;;;;;28.18;35.68;101126.50;5076365;28;771;-39
2021/07/09 10:34:23;;;;;;;;;;;;;;;28.32;35.69;101122.19;5076429;28;962;-39
2021/07/09 10:37:09;;;;;;;;;;;;;;;28.34;35.75;101129.09;5079512;28;767;-39
2021/07/09 10:39:41;;;;;;;;;;;;;;;28.28;36.04;101126.28;5079404;28;870;-38
2021/07/09 10:42:45;;;;;;;;;;;;;;;28.60;35.41;101119.75;5079599;28;740;-38
2021/07/09 10:45:24;;;;;;;;;;;;;;;28.72;34.96;101124.72;5017454;28;1124;-39
2021/07/09 10:48:06;;;;;;;;;;;;;;;28.70;34.75;101124.91;5017094;28;1965;-38
2021/07/09 10:50:43;;;;;;;;;;;;;;;28.58;34.74;101124.50;5057194;28;1520;-46
2021/07/09 10:53:08;;;;;;;;;;;;;;;28.48;35.22;101121.22;5079259;28;810;-39
2021/07/09 10:55:42;;;;;;;;;;;;;;;28.46;35.32;101124.09;5078936;28;1265;-40
2021/07/09 10:58:07;;;;;;;;;;;;;;;28.25;35.31;101127.47;5078144;28;1134;-42
2021/07/09 11:00:42;;;;;;;;;;;;;;;28.00;36.05;101124.97;5078719;28;803;-34
2021/07/09 11:03:07;;;;;;;;;;;;;;;27.97;35.88;101123.47;5079171;28;858;-34
2021/07/09 11:05:42;;;;;;;;;;;;;;;27.98;35.69;101125.13;5078279;28;975;-34
2021/07/09 11:08:25;;;;;;;;;;;;;;;28.04;35.47;101122.75;5079171;28;852;-45
2021/07/09 11:10:57;;;;;;;;;;;;;;;28.00;35.85;101122.25;5079007;28;851;-33
2021/07/09 11:13:44;;;;;;;;;;;;;;;28.23;35.65;101124.94;5078482;28;894;-43
2021/07/09 11:16:21;;;;;;;;;;;;;;;28.35;35.62;101120.00;5078887;28;774;-35
2021/07/09 11:18:49;;;;;;;;;;;;;;;28.46;35.95;101120.59;5078259;28;950;-34
2021/07/09 11:21:16;;;;;;;;;;;;;;;28.78;35.21;101123.16;5078826;28;798;-43
2021/07/09 11:23:53;;;;;;;;;;;;;;;28.88;34.94;101125.56;5078819;28;780;-35
2021/07/09 11:26:18;;;;;;;;;;;;;;;28.96;34.95;101118.19;5078717;28;1965;-35
2021/07/09 11:28:44;;;;;;;;;;;;;;;29.14;35.09;101118.88;5078647;28;855;-40
2021/07/09 11:31:09;;;;;;;;;;;;;;;29.16;34.88;101117.66;5078534;28;764;-43
2021/07/09 11:33:34;;;;;;;;;;;;;;;29.18;35.06;101117.44;5078431;28;1014;-42
2021/07/09 11:36:15;;;;;;;;;;;;;;;29.24;35.09;101110.44;5078590;28;823;-41
2021/07/09 11:39:00;;;;;;;;;;;;;;;29.42;34.92;101113.59;5078471;28;843;-41
2021/07/09 11:41:25;;;;;;;;;;;;;;;29.52;35.10;101118.72;5078528;28;1005;-41
2021/07/09 11:43:51;;;;;;;;;;;;;;;29.51;34.89;101118.91;5078161;28;806;-33
2021/07/09 11:46:17;;;;;;;;;;;;;;;29.52;35.06;101117.88;5078132;28;1901;-34
2021/07/09 11:48:42;;;;;;;;;;;;;;;29.60;35.13;101106.94;5060307;28;951;-33
2021/07/09 11:51:07;;;;;;;;;;;;;;;29.59;35.27;101108.00;5059732;28;828;-34
2021/07/09 11:53:33;;;;;;;;;;;;;;;29.55;35.53;101102.06;5078570;28;759;-33
2021/07/09 11:56:12;;;;;;;;;;;;;;;29.58;35.52;101098.97;5060472;28;1084;-39
2021/07/09 11:58:37;;;;;;;;;;;;;;;29.66;35.41;101095.34;5078311;28;807;-34
2021/07/09 12:01:02;;;;;;;;;;;;;;;29.62;35.55;101095.91;5078275;28;798;-33
2021/07/09 12:03:27;;;;;;;;;;;;;;;29.73;35.55;101095.41;5059392;28;880;-33
2021/07/09 12:05:53;;;;;;;;;;;;;;;29.66;35.86;101100.75;5077440;28;1957;-33
2021/07/09 12:08:18;;;;;;;;;;;;;;;29.71;35.65;101086.66;5078428;28;816;-33
2021/07/09 12:10:43;;;;;;;;;;;;;;;29.73;35.96;101086.44;5077580;28;871;-33
2021/07/09 12:13:09;;;;;;;;;;;;;;;29.68;35.83;101093.28;5077768;28;832;-40
2021/07/09 12:15:34;;;;;;;;;;;;;;;29.74;36.05;101093.53;5077963;28;778;-37
2021/07/09 12:18:00;;;;;;;;;;;;;;;29.79;35.85;101094.66;5077619;28;739;-34
2021/07/09 12:20:25;;;;;;;;;;;;;;;29.80;36.27;101098.19;5077306;28;1006;-43
2021/07/09 12:22:51;;;;;;;;;;;;;;;29.80;36.11;101096.31;5077902;28;763;-34
2021/07/09 12:25:24;;;;;;;;;;;;;;;29.62;36.52;101094.06;5077689;28;752;-35
2021/07/09 12:27:49;;;;;;;;;;;;;;;29.47;37.76;101091.34;5077340;28;1958;-37
2021/07/09 12:30:16;;;;;;;;;;;;;;;29.29;38.28;101087.19;5076306;28;1119;-38
2021/07/09 12:32:44;;;;;;;;;;;;;;;29.30;38.12;101091.56;5077300;28;837;-37
2021/07/09 12:35:09;;;;;;;;;;;;;;;29.26;37.88;101086.72;5076671;28;982;-36
2021/07/09 12:37:35;;;;;;;;;;;;;;;29.22;37.59;101083.56;5077493;28;839;-36
2021/07/09 12:40:08;;;;;;;;;;;;;;;29.24;37.91;101086.06;5077224;28;862;-36
2021/07/09 12:42:33;;;;;;;;;;;;;;;29.14;38.22;101078.25;5077090;28;787;-38
2021/07/09 12:44:58;;;;;;;;;;;;;;;29.16;37.97;101074.31;5077141;28;739;-36
2021/07/09 12:47:24;;;;;;;;;;;;;;;29.11;38.16;101071.34;5075990;28;1905;-38
2021/07/09 12:49:49;;;;;;;;;;;;;;;29.15;38.04;101071.78;5075771;28;903;-36
2021/07/09 12:52:15;;;;;;;;;;;;;;;29.09;38.38;101076.91;5076921;28;806;-36
2021/07/09 12:54:40;;;;;;;;;;;;;;;29.03;38.29;101068.75;5077159;28;1207;-35
2021/07/09 12:57:06;;;;;;;;;;;;;;;29.09;37.94;101073.41;5076018;28;743;-37
2021/07/09 12:59:31;;;;;;;;;;;;;;;29.11;38.17;101070.50;5076899;28;755;-36
2021/07/09 13:02:07;;;;;;;;;;;;;;;29.03;38.00;101076.88;5076481;28;554;-36